Euskara    
Meteorología y climatología de Navarra
Datos de la estación - Meteo Navarra

Estación de Gorramendi GN

Altitud 1071 m.


Datos desde el 08/04/2021 hasta el 09/04/2021 en horario solar
Los datos son PROVISIONALES

Anterior Página 1 de 1 Siguiente Descargar: Formato para Excel 2000 o superior   Formato csv   Formato para OpenOffice Calc
Fecha Temperatura Humedad relativa Radiación global Insolación Precipitación Vel. viento 10 m Vel. viento 10 m Dir. viento 10 m
°C % W/m² s l/m² m/s km/h °
08/04/2021 0:00 4.9 51 0.0 0 0.0 11.0 39.5 181
08/04/2021 0:10 4.8 52 0.0 0 0.0 10.2 36.7 186
08/04/2021 0:20 4.8 52 0.0 0 0.0 10.2 36.7 185
08/04/2021 0:30 5.0 51 0.0 0 0.0 10.5 37.8 188
08/04/2021 0:40 4.9 52 0.0 0 0.0 10.4 37.5 190
08/04/2021 0:50 5.0 53 0.0 0 0.0 10.8 38.8 188
08/04/2021 1:00 4.8 54 0.0 0 0.0 11.2 40.2 189
08/04/2021 1:10 4.9 54 0.0 0 0.0 11.3 40.5 187
08/04/2021 1:20 4.7 55 0.0 0 0.0 11.3 40.6 188
08/04/2021 1:30 4.7 56 0.0 0 0.0 11.5 41.5 189
08/04/2021 1:40 4.8 55 0.0 0 0.0 11.1 40.0 186
08/04/2021 1:50 4.5 57 0.0 0 0.0 11.8 42.6 192
08/04/2021 2:00 4.8 56 0.0 0 0.0 12.9 46.4 184
08/04/2021 2:10 4.8 55 0.0 0 0.0 12.0 43.1 185
08/04/2021 2:20 4.7 56 0.0 0 0.0 12.9 46.6 184
08/04/2021 2:30 4.8 55 0.0 0 0.0 12.9 46.3 188
08/04/2021 2:40 4.7 55 0.0 0 0.0 13.0 46.7 188
08/04/2021 2:50 4.9 54 0.0 0 0.0 13.7 49.2 190
08/04/2021 3:00 4.7 54 0.0 0 0.0 13.0 46.6 188
08/04/2021 3:10 4.9 53 0.0 0 0.0 12.9 46.3 188
08/04/2021 3:20 4.9 53 0.0 0 0.0 13.4 48.2 187
08/04/2021 3:30 5.0 53 0.0 0 0.0 14.0 50.3 188
08/04/2021 3:40 5.0 52 0.0 0 0.0 14.2 51.3 191
08/04/2021 3:50 5.1 52 0.0 0 0.0 14.1 50.9 192
08/04/2021 4:00 5.0 52 0.0 0 0.0 13.8 49.5 195
08/04/2021 4:10 4.8 54 0.0 0 0.0 13.9 50.2 198
08/04/2021 4:20 4.6 56 0.0 0 0.0 13.3 47.8 196
08/04/2021 4:30 4.5 57 0.0 0 0.0 14.0 50.4 197
08/04/2021 4:40 4.5 57 0.0 0 0.0 13.7 49.4 195
08/04/2021 4:50 4.4 58 0.0 0 0.0 14.4 51.8 195
08/04/2021 5:00 4.4 57 0.0 0 0.0 14.3 51.6 197
08/04/2021 5:10 4.5 57 0.0 0 0.0 14.4 51.9 197
08/04/2021 5:20 4.2 58 0.0 0 0.0 13.5 48.7 196
08/04/2021 5:30 4.1 59 0.0 0 0.0 13.2 47.4 198
08/04/2021 5:40 4.0 60 2.9 0 0.0 13.3 47.7 198
08/04/2021 5:50 3.9 62 28.1 250 0.0 13.2 47.3 199
08/04/2021 6:00 3.8 63 52.6 600 0.0 13.0 46.7 197
08/04/2021 6:10 3.9 63 82.7 600 0.0 12.7 45.7 198
08/04/2021 6:20 3.8 64 106.7 600 0.0 12.8 46.1 199
08/04/2021 6:30 4.1 63 146.4 600 0.0 12.7 45.7 200
08/04/2021 6:40 4.3 61 179.7 600 0.0 13.6 49.0 202
08/04/2021 6:50 4.4 61 218.0 600 0.0 13.2 47.4 203
08/04/2021 7:00 4.3 62 253.0 600 0.0 12.8 45.9 201
08/04/2021 7:10 4.6 61 289.8 600 0.0 12.7 45.7 200
08/04/2021 7:20 4.7 61 330.4 600 0.0 12.7 45.7 199
08/04/2021 7:30 4.6 63 365.9 600 0.0 12.4 44.6 200
08/04/2021 7:40 5.1 61 401.9 600 0.0 12.7 45.9 198
08/04/2021 7:50 5.1 62 434.8 600 0.0 12.6 45.3 201
08/04/2021 8:00 5.1 63 469.3 600 0.0 11.9 42.9 202
08/04/2021 8:10 5.4 63 501.0 600 0.0 12.0 43.1 200
08/04/2021 8:20 5.6 62 529.2 600 0.0 12.2 43.8 199
08/04/2021 8:30 5.9 62 549.9 600 0.0 12.2 44.1 203
08/04/2021 8:40 6.1 63 577.2 600 0.0 13.0 46.9 206
08/04/2021 8:50 6.2 64 607.0 600 0.0 13.2 47.3 206
08/04/2021 9:00 6.4 65 630.3 600 0.0 13.8 49.6 205
08/04/2021 9:10 6.5 66 649.8 600 0.0 14.1 50.7 206
08/04/2021 9:20 6.8 66 665.1 600 0.0 12.9 46.4 204
08/04/2021 9:30 7.1 66 699.1 600 0.0 13.0 46.7 203
08/04/2021 9:40 7.3 67 737.9 600 0.0 12.1 43.6 205
08/04/2021 9:50 7.5 66 736.6 600 0.0 12.2 44.1 208
08/04/2021 10:00 7.6 65 775.1 600 0.0 13.4 48.2 205
08/04/2021 10:10 7.8 65 789.4 600 0.0 12.6 45.5 202
08/04/2021 10:20 8.2 65 774.7 600 0.0 12.0 43.0 200
08/04/2021 10:30 8.3 65 794.1 600 0.0 12.0 43.0 202
08/04/2021 10:40 8.5 64 810.0 600 0.0 11.5 41.5 203
08/04/2021 10:50 8.7 63 862.0 600 0.0 11.5 41.5 203
08/04/2021 11:00 9.2 62 847.0 600 0.0 10.7 38.6 215
08/04/2021 11:10 9.2 62 858.0 600 0.0 10.9 39.1 213
08/04/2021 11:20 9.3 62 846.0 600 0.0 10.4 37.5 214
08/04/2021 11:30 10.0 60 872.0 600 0.0 9.7 35.0 223
08/04/2021 11:40 9.9 60 879.0 600 0.0 10.5 37.6 224
08/04/2021 11:50 10.1 60 865.0 600 0.0 9.8 35.3 223
08/04/2021 12:00 10.2 58 911.0 600 0.0 10.8 39.0 221
08/04/2021 12:10 10.1 58 866.0 600 0.0 10.2 36.7 222
08/04/2021 12:20 10.3 58 847.0 600 0.0 9.7 34.7 225
08/04/2021 12:30 10.3 57 770.5 600 0.0 10.0 36.1 220
08/04/2021 12:40 10.3 58 705.5 600 0.0 8.9 32.0 214
08/04/2021 12:50 10.5 58 753.9 600 0.0 8.6 30.8 221
08/04/2021 13:00 10.9 57 773.5 600 0.0 7.8 28.2 219
08/04/2021 13:10 11.1 56 759.5 600 0.0 7.7 27.6 223
08/04/2021 13:20 11.3 56 716.7 600 0.0 7.5 27.0 222
08/04/2021 13:30 11.6 56 711.9 600 0.0 7.8 28.2 222
08/04/2021 13:40 11.7 55 770.9 600 0.0 7.6 27.4 218
08/04/2021 13:50 11.9 55 717.2 600 0.0 7.7 27.6 220
08/04/2021 14:00 11.9 55 587.8 600 0.0 7.2 25.9 221
08/04/2021 14:10 11.8 55 541.6 600 0.0 6.6 23.6 224
08/04/2021 14:20 11.7 56 458.2 600 0.0 6.4 23.1 229
08/04/2021 14:30 11.9 57 538.3 600 0.0 5.9 21.3 227
08/04/2021 14:40 11.9 55 479.9 600 0.0 6.1 22.1 220
08/04/2021 14:50 11.9 55 449.2 600 0.0 6.4 23.1 222
08/04/2021 15:00 11.5 56 344.5 236 0.0 6.8 24.6 222
08/04/2021 15:10 11.5 56 408.4 540 0.0 7.5 27.1 218
08/04/2021 15:20 11.7 56 368.1 600 0.0 7.8 28.2 219
08/04/2021 15:30 11.6 57 351.2 600 0.0 7.7 27.7 219
08/04/2021 15:40 11.8 57 398.7 600 0.0 7.4 26.6 221
08/04/2021 15:50 12.0 56 419.4 600 0.0 7.8 28.0 223
08/04/2021 16:00 11.9 57 285.9 292 0.0 6.9 24.8 222
08/04/2021 16:10 11.7 57 275.6 306 0.0 6.7 24.1 219
08/04/2021 16:20 12.2 56 468.8 600 0.0 6.8 24.6 219
08/04/2021 16:30 12.0 55 254.6 216 0.0 6.9 24.8 215
08/04/2021 16:40 11.8 56 219.5 504 0.0 6.4 23.1 216
08/04/2021 16:50 12.1 56 290.5 600 0.0 6.5 23.5 223
08/04/2021 17:00 12.3 56 303.3 600 0.0 6.3 22.7 222
08/04/2021 17:10 12.2 56 144.7 212 0.0 6.1 21.9 226
08/04/2021 17:20 11.7 59 99.2 0 0.0 6.2 22.1 227
08/04/2021 17:30 11.4 60 79.6 0 0.0 6.5 23.2 224
08/04/2021 17:40 11.4 59 70.2 0 0.0 6.8 24.3 220
08/04/2021 17:50 11.2 60 65.5 160 0.0 6.8 24.5 213
08/04/2021 18:00 11.2 60 70.6 468 0.0 6.5 23.2 210
08/04/2021 18:10 11.2 60 52.3 600 0.0 6.3 22.8 207
08/04/2021 18:20 11.0 61 32.0 344 0.0 6.8 24.3 204
08/04/2021 18:30 10.7 63 16.2 0 0.0 7.6 27.3 203
08/04/2021 18:40 10.5 63 0.0 0 0.0 7.4 26.6 204
08/04/2021 18:50 10.3 63 0.0 0 0.0 8.0 28.9 205
08/04/2021 19:00 10.3 63 0.0 0 0.0 8.1 29.1 205
08/04/2021 19:10 10.2 64 0.0 0 0.0 7.9 28.3 207
08/04/2021 19:20 10.1 64 0.0 0 0.0 7.9 28.5 207
08/04/2021 19:30 10.1 65 0.0 0 0.0 8.3 29.8 204
08/04/2021 19:40 10.0 65 0.0 0 0.0 7.8 28.2 202
08/04/2021 19:50 9.8 66 0.0 0 0.0 7.3 26.1 199
08/04/2021 20:00 9.5 67 0.0 0 0.0 7.2 26.1 198
08/04/2021 20:10 9.7 66 0.0 0 0.0 8.6 31.1 201
08/04/2021 20:20 10.1 64 0.0 0 0.0 9.1 32.7 204
08/04/2021 20:30 10.1 63 0.0 0 0.0 9.3 33.6 200
08/04/2021 20:40 10.2 63 0.0 0 0.0 9.0 32.4 200
08/04/2021 20:50 10.3 62 0.0 0 0.0 9.1 32.7 208
08/04/2021 21:00 10.5 62 0.0 0 0.0 9.4 33.9 208
08/04/2021 21:10 10.4 62 0.0 0 0.0 9.5 34.3 200
08/04/2021 21:20 10.2 64 0.0 0 0.0 11.2 40.1 202
08/04/2021 21:30 10.1 65 0.0 0 0.0 11.2 40.3 205
08/04/2021 21:40 10.1 66 0.0 0 0.0 10.5 37.8 206
08/04/2021 21:50 10.1 66 0.0 0 0.0 10.3 37.2 207
08/04/2021 22:00 9.9 67 0.0 0 0.0 11.3 40.5 205
08/04/2021 22:10 9.9 67 0.0 0 0.0 11.9 42.7 201
08/04/2021 22:20 9.9 67 0.0 0 0.0 11.9 42.9 198
08/04/2021 22:30 9.8 67 0.0 0 0.0 10.7 38.5 202
08/04/2021 22:40 9.7 68 0.0 0 0.0 10.9 39.2 209
08/04/2021 22:50 9.6 68 0.0 0 0.0 11.3 40.5 211
08/04/2021 23:00 9.4 70 0.0 0 0.0 11.4 41.1 217
08/04/2021 23:10 9.1 71 0.0 0 0.0 10.4 37.5 213
08/04/2021 23:20 9.0 71 0.0 0 0.0 10.2 36.8 208
08/04/2021 23:30 8.9 72 0.0 0 0.0 10.2 36.8 208
08/04/2021 23:40 8.8 72 0.0 0 0.0 10.3 37.0 204
08/04/2021 23:50 9.0 71 0.0 0 0.0 11.0 39.6 207
Anterior Página 1 de 1 Siguiente
Los datos de precipitación registrados en estaciones que están en cumbres son inferiores a lo real, como consecuencia del efecto del viento y de la nieve.


NOTA: Tipo de datos según el color:
   - Valores diarios o 10 minutos correctos
   - Valores diarios calculados a partir de un número de datos 10 minutos menor que 144 y mayor que 120, o de un número de datos semihorarios menor que 48 y mayor que 40 (caso de las estaciones de INTIA Y Ministerio)
   - Valores diez minutos estimados


Contacto        Enlaces        Aviso legal